Big Bear Station Historical Data
Daily Summary for March 31, 2017 Units:  English    Metric   Both
« Previous Day
Next Day »
Daily Weekly Monthly Yearly Custom
  High: Low: Average:
Temperature: 51.6 °F 26.4 °F 37.1 °F
Dew Point: 27.3 °F 16.2 °F 23.4 °F
Humidity: 87 % 37 % 59 %
Wind Speed: 9.9 mph 0.0 mph 4.6 mph
Wind Gust: -999.0 mph - -
Wind:- - WSW
Pressure: 30.02 in 29.80 in -
Precipitation: 0.00 in    
Historical Graphs
 
 
Tabular Data for March 31, 2017
Time Temperature Dew Point Pressure Wind Wind Speed Wind Gust Humidity Rainfall Rate (Hourly)
00:10 28.8 °F 23.7 °F 29.81 in NNE 2.7 mph -999.0 mph 81 % 0 in
00:25 28.6 °F 23.8 °F 29.81 in NW 3.2 mph -999.0 mph 82 % 0 in
00:56 28.2 °F 24.8 °F 29.80 in NW 6.8 mph -999.0 mph 87 % 0 in
01:12 27.9 °F 24.5 °F 29.81 in NW 4.7 mph -999.0 mph 87 % 0 in
01:27 28.2 °F 24.8 °F 29.80 in NE 3.7 mph -999.0 mph 87 % 0 in
01:42 27.9 °F 24.5 °F 29.81 in WNW 4.7 mph -999.0 mph 87 % 0 in
01:58 27.9 °F 24.3 °F 29.82 in NW 2.7 mph -999.0 mph 86 % 0 in
02:13 27.9 °F 24.0 °F 29.81 in NW 4.2 mph -999.0 mph 85 % 0 in
02:28 27.7 °F 24.1 °F 29.81 in North 4.7 mph -999.0 mph 86 % 0 in
02:44 27.7 °F 24.1 °F 29.81 in NNE 6.3 mph -999.0 mph 86 % 0 in
02:59 27.5 °F 24.1 °F 29.81 in NW 5.8 mph -999.0 mph 87 % 0 in
03:15 27.3 °F 23.9 °F 29.81 in North 3.7 mph -999.0 mph 87 % 0 in
03:30 27.1 °F 23.7 °F 29.80 in NNW 4.2 mph -999.0 mph 87 % 0 in
03:46 27.1 °F 23.5 °F 29.80 in ESE 3.2 mph -999.0 mph 86 % 0 in
04:02 27.1 °F 23.5 °F 29.80 in NW 4.2 mph -999.0 mph 86 % 0 in
04:17 26.6 °F 22.1 °F 29.80 in NNW 5.3 mph -999.0 mph 83 % 0 in
04:33 26.4 °F 21.4 °F 29.80 in SSW 6.3 mph -999.0 mph 81 % 0 in
04:48 26.8 °F 22.3 °F 29.80 in WNW 8.3 mph -999.0 mph 83 % 0 in
05:04 27.0 °F 20.4 °F 29.80 in West 5.8 mph -999.0 mph 76 % 0 in
05:19 27.5 °F 21.2 °F 29.80 in NNW 5.3 mph -999.0 mph 77 % 0 in
05:34 28.2 °F 18.6 °F 29.80 in SW 7.3 mph -999.0 mph 67 % 0 in
05:49 28.8 °F 17.8 °F 29.80 in NNW 9.4 mph -999.0 mph 63 % 0 in
06:05 28.8 °F 17.0 °F 29.80 in NW 3.7 mph -999.0 mph 61 % 0 in
06:21 28.0 °F 19.5 °F 29.81 in NNW 3.2 mph -999.0 mph 70 % 0 in
06:36 27.5 °F 18.7 °F 29.80 in NE 5.3 mph -999.0 mph 69 % 0 in
06:51 28.0 °F 17.8 °F 29.80 in NE 3.7 mph -999.0 mph 65 % 0 in
07:06 29.1 °F 16.9 °F 29.80 in WNW 9.9 mph -999.0 mph 60 % 0 in
07:21 29.5 °F 16.9 °F 29.81 in NE 5.3 mph -999.0 mph 59 % 0 in
07:37 29.7 °F 16.3 °F 29.82 in NNW 8.9 mph -999.0 mph 57 % 0 in
07:52 29.8 °F 16.4 °F 29.82 in North 5.8 mph -999.0 mph 57 % 0 in
08:07 30.0 °F 16.2 °F 29.83 in North 2.7 mph -999.0 mph 56 % 0 in
08:23 30.7 °F 16.8 °F 29.83 in NNW 7.8 mph -999.0 mph 56 % 0 in
08:38 31.5 °F 17.2 °F 29.84 in NNE 3.2 mph -999.0 mph 55 % 0 in
08:54 32.2 °F 17.8 °F 29.84 in NNW 5.8 mph -999.0 mph 55 % 0 in
09:09 32.7 °F 17.9 °F 29.84 in North 4.7 mph -999.0 mph 54 % 0 in
09:24 33.3 °F 19.3 °F 29.85 in NW 5.8 mph -999.0 mph 56 % 0 in
09:40 33.8 °F 19.8 °F 29.85 in North 5.8 mph -999.0 mph 56 % 0 in
09:55 34.3 °F 19.4 °F 29.85 in NE 8.9 mph -999.0 mph 54 % 0 in
10:11 34.7 °F 20.6 °F 29.85 in NNW 8.9 mph -999.0 mph 56 % 0 in
10:27 35.6 °F 19.7 °F 29.86 in NNW 4.7 mph -999.0 mph 52 % 0 in
10:42 37.0 °F 21.0 °F 29.87 in NNW 4.2 mph -999.0 mph 52 % 0 in
10:57 38.7 °F 22.1 °F 29.87 in NNW 4.7 mph -999.0 mph 51 % 0 in
11:12 39.7 °F 22.1 °F 29.87 in NW 5.8 mph -999.0 mph 49 % 0 in
11:28 40.6 °F 21.9 °F 29.87 in North 3.7 mph -999.0 mph 47 % 0 in
11:43 42.1 °F 23.8 °F 29.87 in NW 5.3 mph -999.0 mph 48 % 0 in
11:59 42.8 °F 26.8 °F 29.88 in NNW 8.9 mph -999.0 mph 53 % 0 in
12:14 42.3 °F 25.0 °F 29.88 in NNE 7.3 mph -999.0 mph 50 % 0 in
12:29 43.0 °F 25.6 °F 29.89 in NW 8.9 mph -999.0 mph 50 % 0 in
12:45 43.5 °F 24.1 °F 29.88 in NW 6.8 mph -999.0 mph 46 % 0 in
13:00 42.8 °F 24.9 °F 29.89 in NE 7.8 mph -999.0 mph 49 % 0 in
13:15 43.2 °F 23.8 °F 29.89 in North 6.8 mph -999.0 mph 46 % 0 in
13:30 43.3 °F 25.4 °F 29.89 in NNW 8.3 mph -999.0 mph 49 % 0 in
13:46 43.7 °F 24.3 °F 29.89 in NNE 6.3 mph -999.0 mph 46 % 0 in
14:01 44.8 °F 24.2 °F 29.89 in NNW 5.8 mph -999.0 mph 44 % 0 in
14:17 45.7 °F 25.0 °F 29.90 in North 7.3 mph -999.0 mph 44 % 0 in
14:32 46.0 °F 24.2 °F 29.90 in NE 3.7 mph -999.0 mph 42 % 0 in
14:47 46.0 °F 25.8 °F 29.90 in NNW 6.3 mph -999.0 mph 45 % 0 in
15:03 46.6 °F 24.7 °F 29.90 in NNE 4.7 mph -999.0 mph 42 % 0 in
15:18 46.4 °F 25.1 °F 29.90 in NW 4.7 mph -999.0 mph 43 % 0 in
15:33 47.8 °F 24.6 °F 29.90 in East 2.7 mph -999.0 mph 40 % 0 in
15:49 46.8 °F 25.5 °F 29.90 in NNW 5.3 mph -999.0 mph 43 % 0 in
16:04 47.1 °F 25.2 °F 29.90 in NNW 4.7 mph -999.0 mph 42 % 0 in
16:19 47.7 °F 26.3 °F 29.91 in NNW 5.3 mph -999.0 mph 43 % 0 in
16:35 47.3 °F 25.9 °F 29.91 in North 4.2 mph -999.0 mph 43 % 0 in
16:50 47.8 °F 25.8 °F 29.92 in NNW 4.7 mph -999.0 mph 42 % 0 in
17:05 51.3 °F 25.9 °F 29.91 in NW 6.3 mph -999.0 mph 37 % 0 in
17:20 49.6 °F 26.3 °F 29.92 in NW 4.2 mph -999.0 mph 40 % 0 in
17:36 51.6 °F 26.2 °F 29.92 in WNW 4.2 mph -999.0 mph 37 % 0 in
17:51 48.4 °F 26.3 °F 29.92 in NE 4.7 mph -999.0 mph 42 % 0 in
18:06 46.4 °F 27.3 °F 29.92 in ENE 3.2 mph -999.0 mph 47 % 0 in
18:21 45.1 °F 26.1 °F 29.92 in NE 2.2 mph -999.0 mph 47 % 0 in
18:36 44.4 °F 25.9 °F 29.92 in WNW 3.7 mph -999.0 mph 48 % 0 in
18:52 43.7 °F 26.3 °F 29.93 in NW 2.7 mph -999.0 mph 50 % 0 in
19:07 42.8 °F 25.9 °F 29.93 in NNW 2.2 mph -999.0 mph 51 % 0 in
19:22 41.5 °F 26.1 °F 29.94 in Calm   -999.0 mph 54 % 0 in
19:37 40.6 °F 25.2 °F 29.94 in SSW 1.7 mph -999.0 mph 54 % 0 in
19:53 40.3 °F 25.8 °F 29.94 in SSE 1.7 mph -999.0 mph 56 % 0 in
20:08 40.1 °F 26.1 °F 29.95 in Calm   -999.0 mph 57 % 0 in
20:23 40.1 °F 26.5 °F 29.95 in Calm   -999.0 mph 58 % 0 in
20:38 39.9 °F 26.7 °F 29.96 in NE 2.2 mph -999.0 mph 59 % 0 in
20:53 40.5 °F 27.3 °F 29.97 in North 2.2 mph -999.0 mph 59 % 0 in
21:09 40.3 °F 25.8 °F 29.98 in North 3.7 mph -999.0 mph 56 % 0 in
21:24 40.3 °F 26.7 °F 29.98 in NNE 2.7 mph -999.0 mph 58 % 0 in
21:39 39.4 °F 25.4 °F 29.99 in South 1.7 mph -999.0 mph 57 % 0 in
21:55 39.0 °F 25.5 °F 29.99 in NE 1.7 mph -999.0 mph 58 % 0 in
22:10 38.7 °F 26.0 °F 29.99 in SE 2.7 mph -999.0 mph 60 % 0 in
22:25 39.7 °F 26.1 °F 29.99 in NNE 3.2 mph -999.0 mph 58 % 0 in
22:40 39.9 °F 27.1 °F 29.99 in NNW 4.7 mph -999.0 mph 60 % 0 in
22:56 40.3 °F 26.7 °F 30.01 in NW 4.2 mph -999.0 mph 58 % 0 in
23:11 39.4 °F 26.3 °F 30.01 in WSW 3.2 mph -999.0 mph 59 % 0 in
23:26 39.2 °F 26.1 °F 30.01 in SSE 1.1 mph -999.0 mph 59 % 0 in
23:41 38.5 °F 26.6 °F 30.01 in Calm   -999.0 mph 62 % 0 in
23:56 37.8 °F 25.9 °F 30.02 in Calm   -999.0 mph 62 % 0 in
Big Bear CA Weather
Compliments of Weather Underground - 1.5 mb